sensor_id;sensor_type;location;lat;lon;timestamp;pressure;altitude;pressure_sealevel;temperature;humidity
8049;BME280;20935;42.660;23.342;2023-02-17T00:02:36;95676.34;;;0.70;100.00
8049;BME280;20935;42.660;23.342;2023-02-17T00:05:25;95675.41;;;0.18;100.00
8049;BME280;20935;42.660;23.342;2023-02-17T00:08:11;95672.13;;;0.60;100.00
8049;BME280;20935;42.660;23.342;2023-02-17T00:10:57;95677.84;;;0.45;100.00
8049;BME280;20935;42.660;23.342;2023-02-17T00:13:43;95671.00;;;0.35;100.00
8049;BME280;20935;42.660;23.342;2023-02-17T00:16:29;95667.44;;;0.48;100.00
8049;BME280;20935;42.660;23.342;2023-02-17T00:19:14;95670.91;;;0.58;100.00
8049;BME280;20935;42.660;23.342;2023-02-17T00:22:22;95663.97;;;0.22;100.00
8049;BME280;20935;42.660;23.342;2023-02-17T00:25:08;95668.38;;;0.35;100.00
8049;BME280;20935;42.660;23.342;2023-02-17T00:27:53;95663.47;;;0.68;100.00
8049;BME280;20935;42.660;23.342;2023-02-17T00:30:41;95659.66;;;0.26;100.00
8049;BME280;20935;42.660;23.342;2023-02-17T00:33:27;95648.47;;;0.21;100.00
8049;BME280;20935;42.660;23.342;2023-02-17T00:36:14;95650.09;;;0.39;100.00
8049;BME280;20935;42.660;23.342;2023-02-17T00:39:02;95645.19;;;0.63;100.00
8049;BME280;20935;42.660;23.342;2023-02-17T00:41:48;95640.69;;;0.64;100.00
8049;BME280;20935;42.660;23.342;2023-02-17T00:44:34;95634.31;;;0.56;100.00
8049;BME280;20935;42.660;23.342;2023-02-17T00:47:19;95638.44;;;0.40;100.00
8049;BME280;20935;42.660;23.342;2023-02-17T00:50:06;95631.84;;;0.68;100.00
8049;BME280;20935;42.660;23.342;2023-02-17T00:52:51;95640.19;;;0.05;100.00
8049;BME280;20935;42.660;23.342;2023-02-17T00:55:38;95643.34;;;-0.15;100.00
8049;BME280;20935;42.660;23.342;2023-02-17T00:58:23;95651.09;;;-0.19;100.00
8049;BME280;20935;42.660;23.342;2023-02-17T01:01:10;95637.16;;;0.20;100.00
8049;BME280;20935;42.660;23.342;2023-02-17T01:03:55;95636.59;;;0.40;100.00
8049;BME280;20935;42.660;23.342;2023-02-17T01:06:40;95637.09;;;0.03;100.00
8049;BME280;20935;42.660;23.342;2023-02-17T01:09:29;95636.03;;;0.13;100.00
8049;BME280;20935;42.660;23.342;2023-02-17T01:12:15;95640.13;;;0.27;100.00
8049;BME280;20935;42.660;23.342;2023-02-17T01:15:00;95631.03;;;0.42;100.00
8049;BME280;20935;42.660;23.342;2023-02-17T01:17:46;95633.38;;;0.52;100.00
8049;BME280;20935;42.660;23.342;2023-02-17T01:20:33;95635.25;;;0.60;100.00
8049;BME280;20935;42.660;23.342;2023-02-17T01:23:19;95635.44;;;0.64;100.00
8049;BME280;20935;42.660;23.342;2023-02-17T01:26:04;95634.47;;;0.51;100.00
8049;BME280;20935;42.660;23.342;2023-02-17T01:28:52;95621.94;;;0.65;100.00
8049;BME280;20935;42.660;23.342;2023-02-17T01:31:38;95622.53;;;0.62;100.00
8049;BME280;20935;42.660;23.342;2023-02-17T01:34:24;95616.19;;;0.72;100.00
8049;BME280;20935;42.660;23.342;2023-02-17T01:37:09;95615.41;;;0.63;100.00
8049;BME280;20935;42.660;23.342;2023-02-17T01:39:54;95614.50;;;0.93;100.00
8049;BME280;20935;42.660;23.342;2023-02-17T01:42:40;95615.56;;;0.66;100.00
8049;BME280;20935;42.660;23.342;2023-02-17T01:45:40;95612.88;;;0.40;100.00
8049;BME280;20935;42.660;23.342;2023-02-17T01:48:32;95609.81;;;0.64;100.00
8049;BME280;20935;42.660;23.342;2023-02-17T01:51:22;95622.66;;;0.31;100.00
8049;BME280;20935;42.660;23.342;2023-02-17T01:54:12;95622.31;;;0.33;100.00
8049;BME280;20935;42.660;23.342;2023-02-17T01:57:00;95621.16;;;0.65;100.00
8049;BME280;20935;42.660;23.342;2023-02-17T01:59:47;95623.59;;;0.53;100.00
8049;BME280;20935;42.660;23.342;2023-02-17T02:02:34;95620.41;;;0.16;100.00
8049;BME280;20935;42.660;23.342;2023-02-17T02:05:20;95621.63;;;0.10;100.00
8049;BME280;20935;42.660;23.342;2023-02-17T02:08:06;95620.28;;;0.21;100.00
8049;BME280;20935;42.660;23.342;2023-02-17T02:10:51;95613.00;;;0.18;100.00
8049;BME280;20935;42.660;23.342;2023-02-17T02:13:37;95620.38;;;-0.01;100.00
8049;BME280;20935;42.660;23.342;2023-02-17T02:16:25;95609.50;;;0.00;100.00
8049;BME280;20935;42.660;23.342;2023-02-17T02:19:33;95615.69;;;0.35;100.00
8049;BME280;20935;42.660;23.342;2023-02-17T02:22:40;95606.38;;;0.38;100.00
8049;BME280;20935;42.660;23.342;2023-02-17T02:25:44;95607.00;;;0.52;100.00
8049;BME280;20935;42.660;23.342;2023-02-17T02:28:42;95608.25;;;0.46;100.00
8049;BME280;20935;42.660;23.342;2023-02-17T02:31:40;95614.25;;;0.29;100.00
8049;BME280;20935;42.660;23.342;2023-02-17T02:34:32;95615.66;;;0.27;100.00
8049;BME280;20935;42.660;23.342;2023-02-17T02:37:22;95621.31;;;0.03;100.00
8049;BME280;20935;42.660;23.342;2023-02-17T02:40:11;95615.81;;;0.30;100.00
8049;BME280;20935;42.660;23.342;2023-02-17T02:43:00;95613.63;;;0.32;100.00
8049;BME280;20935;42.660;23.342;2023-02-17T02:45:46;95617.72;;;0.47;100.00
8049;BME280;20935;42.660;23.342;2023-02-17T02:48:32;95619.75;;;0.59;100.00
8049;BME280;20935;42.660;23.342;2023-02-17T02:51:38;95613.66;;;0.41;100.00
8049;BME280;20935;42.660;23.342;2023-02-17T02:54:36;95615.34;;;0.28;100.00
8049;BME280;20935;42.660;23.342;2023-02-17T02:57:33;95606.06;;;0.48;100.00
8049;BME280;20935;42.660;23.342;2023-02-17T03:00:24;95615.81;;;0.30;100.00
8049;BME280;20935;42.660;23.342;2023-02-17T03:03:22;95613.25;;;0.08;100.00
8049;BME280;20935;42.660;23.342;2023-02-17T03:06:15;95620.53;;;0.03;100.00
8049;BME280;20935;42.660;23.342;2023-02-17T03:09:08;95610.94;;;0.07;100.00
8049;BME280;20935;42.660;23.342;2023-02-17T03:11:56;95618.88;;;0.15;100.00
8049;BME280;20935;42.660;23.342;2023-02-17T03:14:42;95600.66;;;-0.04;100.00
8049;BME280;20935;42.660;23.342;2023-02-17T03:17:30;95613.28;;;0.17;100.00
8049;BME280;20935;42.660;23.342;2023-02-17T03:20:16;95611.63;;;0.29;100.00
8049;BME280;20935;42.660;23.342;2023-02-17T03:23:02;95619.03;;;0.19;100.00
8049;BME280;20935;42.660;23.342;2023-02-17T03:25:49;95615.38;;;-0.03;100.00
8049;BME280;20935;42.660;23.342;2023-02-17T03:28:34;95619.34;;;0.17;100.00
8049;BME280;20935;42.660;23.342;2023-02-17T03:31:20;95616.25;;;-0.16;100.00
8049;BME280;20935;42.660;23.342;2023-02-17T03:34:06;95619.59;;;-0.02;100.00
8049;BME280;20935;42.660;23.342;2023-02-17T03:36:51;95616.53;;;0.14;100.00
8049;BME280;20935;42.660;23.342;2023-02-17T03:39:36;95612.97;;;0.10;100.00
8049;BME280;20935;42.660;23.342;2023-02-17T03:42:23;95609.16;;;0.33;100.00
8049;BME280;20935;42.660;23.342;2023-02-17T03:45:09;95617.91;;;0.03;100.00
8049;BME280;20935;42.660;23.342;2023-02-17T03:47:55;95613.88;;;0.05;100.00
8049;BME280;20935;42.660;23.342;2023-02-17T03:50:40;95612.38;;;0.21;100.00
8049;BME280;20935;42.660;23.342;2023-02-17T03:53:26;95601.84;;;0.21;100.00
8049;BME280;20935;42.660;23.342;2023-02-17T03:56:12;95607.88;;;0.22;100.00
8049;BME280;20935;42.660;23.342;2023-02-17T03:58:59;95607.09;;;0.21;100.00
8049;BME280;20935;42.660;23.342;2023-02-17T04:01:45;95612.34;;;0.13;100.00
8049;BME280;20935;42.660;23.342;2023-02-17T04:04:33;95606.47;;;0.07;100.00
8049;BME280;20935;42.660;23.342;2023-02-17T04:07:19;95603.00;;;-0.02;100.00
8049;BME280;20935;42.660;23.342;2023-02-17T04:10:06;95602.00;;;0.25;100.00
8049;BME280;20935;42.660;23.342;2023-02-17T04:12:51;95610.81;;;0.12;100.00
8049;BME280;20935;42.660;23.342;2023-02-17T04:15:41;95613.53;;;0.46;100.00
8049;BME280;20935;42.660;23.342;2023-02-17T04:18:26;95615.97;;;0.34;100.00
8049;BME280;20935;42.660;23.342;2023-02-17T04:21:12;95607.06;;;0.13;100.00
8049;BME280;20935;42.660;23.342;2023-02-17T04:23:59;95609.50;;;0.00;100.00
8049;BME280;20935;42.660;23.342;2023-02-17T04:26:44;95601.28;;;-0.07;100.00
8049;BME280;20935;42.660;23.342;2023-02-17T04:29:30;95619.81;;;-0.20;100.00
8049;BME280;20935;42.660;23.342;2023-02-17T04:32:17;95607.53;;;-0.33;100.00
8049;BME280;20935;42.660;23.342;2023-02-17T04:35:02;95617.53;;;-0.13;100.00
8049;BME280;20935;42.660;23.342;2023-02-17T04:37:48;95618.44;;;-0.18;100.00
8049;BME280;20935;42.660;23.342;2023-02-17T04:40:33;95607.16;;;-0.10;100.00
8049;BME280;20935;42.660;23.342;2023-02-17T04:43:18;95621.00;;;0.05;100.00
8049;BME280;20935;42.660;23.342;2023-02-17T04:46:04;95619.59;;;-0.02;100.00
8049;BME280;20935;42.660;23.342;2023-02-17T04:48:51;95621.94;;;0.00;100.00
8049;BME280;20935;42.660;23.342;2023-02-17T04:51:36;95599.84;;;-0.21;100.00
8049;BME280;20935;42.660;23.342;2023-02-17T04:54:22;95616.25;;;-0.24;100.00
8049;BME280;20935;42.660;23.342;2023-02-17T04:57:07;95623.69;;;-0.18;100.00
8049;BME280;20935;42.660;23.342;2023-02-17T04:59:53;95611.47;;;-0.14;100.00
8049;BME280;20935;42.660;23.342;2023-02-17T05:02:38;95612.78;;;0.06;100.00
8049;BME280;20935;42.660;23.342;2023-02-17T05:05:25;95625.41;;;-0.13;100.00
8049;BME280;20935;42.660;23.342;2023-02-17T05:08:11;95623.97;;;0.12;100.00
8049;BME280;20935;42.660;23.342;2023-02-17T05:10:56;95628.25;;;0.47;100.00
8049;BME280;20935;42.660;23.342;2023-02-17T05:13:42;95648.91;;;0.14;100.00
8049;BME280;20935;42.660;23.342;2023-02-17T05:16:27;95646.31;;;-0.17;100.00
8049;BME280;20935;42.660;23.342;2023-02-17T05:19:13;95635.84;;;0.00;100.00
8049;BME280;20935;42.660;23.342;2023-02-17T05:22:00;95635.72;;;0.06;100.00
8049;BME280;20935;42.660;23.342;2023-02-17T05:24:45;95635.88;;;0.09;100.00
8049;BME280;20935;42.660;23.342;2023-02-17T05:27:31;95644.16;;;0.33;100.00
8049;BME280;20935;42.660;23.342;2023-02-17T05:30:16;95648.00;;;0.19;100.00
8049;BME280;20935;42.660;23.342;2023-02-17T05:33:01;95644.91;;;0.25;100.00
8049;BME280;20935;42.660;23.342;2023-02-17T05:35:47;95659.47;;;-0.17;100.00
8049;BME280;20935;42.660;23.342;2023-02-17T05:38:34;95663.03;;;0.18;100.00
8049;BME280;20935;42.660;23.342;2023-02-17T05:41:20;95664.63;;;0.28;100.00
8049;BME280;20935;42.660;23.342;2023-02-17T05:44:05;95658.00;;;0.56;100.00
8049;BME280;20935;42.660;23.342;2023-02-17T05:46:50;95681.00;;;0.73;100.00
8049;BME280;20935;42.660;23.342;2023-02-17T05:49:36;95668.81;;;0.37;100.00
8049;BME280;20935;42.660;23.342;2023-02-17T05:52:21;95678.41;;;-0.06;100.00
8049;BME280;20935;42.660;23.342;2023-02-17T05:55:08;95660.44;;;0.27;100.00
8049;BME280;20935;42.660;23.342;2023-02-17T05:57:54;95679.16;;;0.73;100.00
8049;BME280;20935;42.660;23.342;2023-02-17T06:00:39;95674.81;;;0.77;100.00
8049;BME280;20935;42.660;23.342;2023-02-17T06:03:24;95684.47;;;1.08;100.00
8049;BME280;20935;42.660;23.342;2023-02-17T06:06:10;95678.88;;;1.43;100.00
8049;BME280;20935;42.660;23.342;2023-02-17T06:08:56;95686.81;;;1.26;100.00
8049;BME280;20935;42.660;23.342;2023-02-17T06:11:42;95676.25;;;1.26;100.00
8049;BME280;20935;42.660;23.342;2023-02-17T06:14:28;95675.31;;;1.14;100.00
8049;BME280;20935;42.660;23.342;2023-02-17T06:17:13;95679.69;;;1.27;100.00
8049;BME280;20935;42.660;23.342;2023-02-17T06:19:59;95684.34;;;1.47;100.00
8049;BME280;20935;42.660;23.342;2023-02-17T06:22:44;95688.50;;;1.14;100.00
8049;BME280;20935;42.660;23.342;2023-02-17T06:25:30;95692.69;;;1.32;100.00
8049;BME280;20935;42.660;23.342;2023-02-17T06:28:17;95677.34;;;1.25;100.00
8049;BME280;20935;42.660;23.342;2023-02-17T06:31:02;95685.25;;;1.42;100.00
8049;BME280;20935;42.660;23.342;2023-02-17T06:33:48;95690.97;;;1.70;100.00
8049;BME280;20935;42.660;23.342;2023-02-17T06:36:33;95685.78;;;2.00;100.00
8049;BME280;20935;42.660;23.342;2023-02-17T06:39:22;95695.41;;;2.51;100.00
8049;BME280;20935;42.660;23.342;2023-02-17T06:42:07;95693.31;;;2.65;100.00
8049;BME280;20935;42.660;23.342;2023-02-17T06:44:54;95696.47;;;2.58;100.00
8049;BME280;20935;42.660;23.342;2023-02-17T06:47:40;95702.75;;;2.74;100.00
8049;BME280;20935;42.660;23.342;2023-02-17T06:50:25;95708.09;;;3.16;100.00
8049;BME280;20935;42.660;23.342;2023-02-17T06:53:11;95710.69;;;3.24;100.00
8049;BME280;20935;42.660;23.342;2023-02-17T06:55:56;95709.84;;;3.74;97.01
8049;BME280;20935;42.660;23.342;2023-02-17T06:58:41;95710.31;;;3.55;97.86
8049;BME280;20935;42.660;23.342;2023-02-17T07:01:28;95704.19;;;3.96;96.86
8049;BME280;20935;42.660;23.342;2023-02-17T07:04:14;95717.66;;;4.60;91.64
8049;BME280;20935;42.660;23.342;2023-02-17T07:06:59;95710.50;;;4.85;89.79
8049;BME280;20935;42.660;23.342;2023-02-17T07:09:45;95716.91;;;4.84;86.72
8049;BME280;20935;42.660;23.342;2023-02-17T07:12:30;95718.19;;;5.14;85.27
8049;BME280;20935;42.660;23.342;2023-02-17T07:15:16;95715.13;;;5.00;82.90
8049;BME280;20935;42.660;23.342;2023-02-17T07:18:02;95724.16;;;5.36;83.31
8049;BME280;20935;42.660;23.342;2023-02-17T07:20:48;95720.06;;;5.26;79.99
8049;BME280;20935;42.660;23.342;2023-02-17T07:23:33;95722.03;;;5.81;77.86
8049;BME280;20935;42.660;23.342;2023-02-17T07:26:18;95725.53;;;5.57;80.65
8049;BME280;20935;42.660;23.342;2023-02-17T07:29:06;95727.41;;;6.25;75.99
8049;BME280;20935;42.660;23.342;2023-02-17T07:31:52;95732.50;;;6.61;74.49
8049;BME280;20935;42.660;23.342;2023-02-17T07:34:38;95728.22;;;6.56;73.50
8049;BME280;20935;42.660;23.342;2023-02-17T07:37:26;95736.69;;;7.09;68.35
8049;BME280;20935;42.660;23.342;2023-02-17T07:40:12;95733.63;;;6.91;66.67
8049;BME280;20935;42.660;23.342;2023-02-17T07:42:58;95740.66;;;6.84;66.53
8049;BME280;20935;42.660;23.342;2023-02-17T07:45:43;95736.88;;;7.00;66.13
8049;BME280;20935;42.660;23.342;2023-02-17T07:48:29;95733.25;;;6.93;65.23
8049;BME280;20935;42.660;23.342;2023-02-17T07:51:18;95741.69;;;7.65;61.56
8049;BME280;20935;42.660;23.342;2023-02-17T07:54:04;95742.00;;;8.36;59.51
8049;BME280;20935;42.660;23.342;2023-02-17T07:56:52;95725.13;;;8.74;58.09
8049;BME280;20935;42.660;23.342;2023-02-17T07:59:40;95735.22;;;8.20;59.00
8049;BME280;20935;42.660;23.342;2023-02-17T08:02:26;95722.84;;;8.76;57.10
8049;BME280;20935;42.660;23.342;2023-02-17T08:05:14;95728.06;;;8.92;56.65
8049;BME280;20935;42.660;23.342;2023-02-17T08:08:00;95723.56;;;9.49;55.37
8049;BME280;20935;42.660;23.342;2023-02-17T08:11:03;95732.94;;;9.09;55.79
8049;BME280;20935;42.660;23.342;2023-02-17T08:14:07;95734.88;;;8.63;55.78
8049;BME280;20935;42.660;23.342;2023-02-17T08:16:52;95741.63;;;8.57;56.64
8049;BME280;20935;42.660;23.342;2023-02-17T08:19:38;95726.75;;;9.05;55.54
8049;BME280;20935;42.660;23.342;2023-02-17T08:22:24;95734.88;;;8.63;55.52
8049;BME280;20935;42.660;23.342;2023-02-17T08:25:11;95728.34;;;9.36;55.09
8049;BME280;20935;42.660;23.342;2023-02-17T08:27:56;95722.91;;;9.55;54.49
8049;BME280;20935;42.660;23.342;2023-02-17T08:30:42;95729.38;;;9.84;53.82
8049;BME280;20935;42.660;23.342;2023-02-17T08:33:27;95716.09;;;10.24;52.23
8049;BME280;20935;42.660;23.342;2023-02-17T08:36:13;95728.38;;;9.66;54.17
8049;BME280;20935;42.660;23.342;2023-02-17T08:38:59;95727.53;;;10.18;52.94
8049;BME280;20935;42.660;23.342;2023-02-17T08:41:47;95728.03;;;10.30;51.55
8049;BME280;20935;42.660;23.342;2023-02-17T08:44:34;95722.34;;;10.35;51.37
8049;BME280;20935;42.660;23.342;2023-02-17T08:47:20;95714.91;;;10.18;52.37
8049;BME280;20935;42.660;23.342;2023-02-17T08:50:07;95717.63;;;10.59;51.77
8049;BME280;20935;42.660;23.342;2023-02-17T08:52:53;95710.50;;;10.77;50.58
8049;BME280;20935;42.660;23.342;2023-02-17T08:55:39;95707.28;;;11.05;50.04
8049;BME280;20935;42.660;23.342;2023-02-17T08:58:26;95703.00;;;10.53;51.02
8049;BME280;20935;42.660;23.342;2023-02-17T09:01:11;95704.81;;;10.82;50.28
8049;BME280;20935;42.660;23.342;2023-02-17T09:03:58;95710.53;;;10.80;50.18
8049;BME280;20935;42.660;23.342;2023-02-17T09:06:47;95715.97;;;11.46;49.22
8049;BME280;20935;42.660;23.342;2023-02-17T09:09:32;95702.78;;;11.23;50.29
8049;BME280;20935;42.660;23.342;2023-02-17T09:12:19;95706.84;;;11.54;48.83
8049;BME280;20935;42.660;23.342;2023-02-17T09:15:07;95702.25;;;11.61;48.29
8049;BME280;20935;42.660;23.342;2023-02-17T09:17:53;95703.94;;;11.87;48.36
8049;BME280;20935;42.660;23.342;2023-02-17T09:20:38;95707.56;;;12.41;47.59
8049;BME280;20935;42.660;23.342;2023-02-17T09:23:27;95702.81;;;11.99;48.40
8049;BME280;20935;42.660;23.342;2023-02-17T09:26:14;95701.81;;;12.42;46.98
8049;BME280;20935;42.660;23.342;2023-02-17T09:28:59;95694.16;;;12.62;46.15
8049;BME280;20935;42.660;23.342;2023-02-17T09:31:48;95689.13;;;12.29;46.86
8049;BME280;20935;42.660;23.342;2023-02-17T09:34:34;95707.63;;;12.87;48.59
8049;BME280;20935;42.660;23.342;2023-02-17T09:37:20;95674.97;;;13.27;40.69
8049;BME280;20935;42.660;23.342;2023-02-17T09:40:07;95683.38;;;13.61;39.17
8049;BME280;20935;42.660;23.342;2023-02-17T09:42:53;95676.09;;;13.44;37.83
8049;BME280;20935;42.660;23.342;2023-02-17T09:45:38;95685.28;;;13.64;37.74
8049;BME280;20935;42.660;23.342;2023-02-17T09:48:30;95682.53;;;13.75;37.50
8049;BME280;20935;42.660;23.342;2023-02-17T09:51:21;95677.13;;;13.78;37.23
8049;BME280;20935;42.660;23.342;2023-02-17T09:54:14;95670.63;;;13.72;37.35
8049;BME280;20935;42.660;23.342;2023-02-17T09:57:00;95676.78;;;13.73;36.60
8049;BME280;20935;42.660;23.342;2023-02-17T09:59:51;95672.09;;;13.87;36.64
8049;BME280;20935;42.660;23.342;2023-02-17T10:02:41;95667.78;;;14.07;36.08
8049;BME280;20935;42.660;23.342;2023-02-17T10:05:36;95677.19;;;13.68;36.63
8049;BME280;20935;42.660;23.342;2023-02-17T10:08:27;95663.28;;;13.80;35.91
8049;BME280;20935;42.660;23.342;2023-02-17T10:11:22;95659.44;;;13.84;35.82
8049;BME280;20935;42.660;23.342;2023-02-17T10:14:18;95660.03;;;14.20;35.88
8049;BME280;20935;42.660;23.342;2023-02-17T10:17:08;95655.41;;;14.13;35.62
8049;BME280;20935;42.660;23.342;2023-02-17T10:20:03;95665.59;;;13.81;35.48
8049;BME280;20935;42.660;23.342;2023-02-17T10:22:53;95655.59;;;13.75;36.47
8049;BME280;20935;42.660;23.342;2023-02-17T10:25:50;95642.13;;;13.85;35.02
8049;BME280;20935;42.660;23.342;2023-02-17T10:28:49;95659.41;;;13.91;34.59
8049;BME280;20935;42.660;23.342;2023-02-17T10:31:42;95641.03;;;13.61;34.98
8049;BME280;20935;42.660;23.342;2023-02-17T10:34:35;95633.66;;;13.80;34.84
8049;BME280;20935;42.660;23.342;2023-02-17T10:37:25;95631.13;;;14.24;34.81
8049;BME280;20935;42.660;23.342;2023-02-17T10:40:17;95625.28;;;14.40;34.22
8049;BME280;20935;42.660;23.342;2023-02-17T10:43:04;95632.97;;;14.45;34.36
8049;BME280;20935;42.660;23.342;2023-02-17T10:45:50;95636.16;;;14.19;34.76
8049;BME280;20935;42.660;23.342;2023-02-17T10:48:38;95611.56;;;14.13;35.24
8049;BME280;20935;42.660;23.342;2023-02-17T10:51:26;95609.59;;;14.21;34.83
8049;BME280;20935;42.660;23.342;2023-02-17T10:54:17;95611.56;;;14.09;35.07
8049;BME280;20935;42.660;23.342;2023-02-17T10:57:12;95606.06;;;14.31;35.27
8049;BME280;20935;42.660;23.342;2023-02-17T10:59:58;95606.91;;;14.21;35.19
8049;BME280;20935;42.660;23.342;2023-02-17T11:02:45;95617.78;;;14.03;35.38
8049;BME280;20935;42.660;23.342;2023-02-17T11:05:32;95608.88;;;14.09;35.33
8049;BME280;20935;42.660;23.342;2023-02-17T11:08:29;95608.16;;;14.02;35.39
8049;BME280;20935;42.660;23.342;2023-02-17T11:11:20;95602.56;;;14.41;34.71
8049;BME280;20935;42.660;23.342;2023-02-17T11:14:15;95608.66;;;14.48;35.15
8049;BME280;20935;42.660;23.342;2023-02-17T11:17:12;95620.06;;;14.08;35.67
8049;BME280;20935;42.660;23.342;2023-02-17T11:20:00;95607.66;;;14.25;35.65
8049;BME280;20935;42.660;23.342;2023-02-17T11:23:04;95605.22;;;14.44;35.59
8049;BME280;20935;42.660;23.342;2023-02-17T11:26:01;95601.00;;;14.43;35.41
8049;BME280;20935;42.660;23.342;2023-02-17T11:28:46;95590.69;;;14.28;35.52
8049;BME280;20935;42.660;23.342;2023-02-17T11:31:33;95591.22;;;14.64;35.40
8049;BME280;20935;42.660;23.342;2023-02-17T11:34:25;95590.91;;;14.54;35.51
8049;BME280;20935;42.660;23.342;2023-02-17T11:37:19;95593.00;;;14.77;35.47
8049;BME280;20935;42.660;23.342;2023-02-17T11:40:16;95585.72;;;15.15;34.61
8049;BME280;20935;42.660;23.342;2023-02-17T11:43:15;95574.50;;;14.79;35.05
8049;BME280;20935;42.660;23.342;2023-02-17T11:46:09;95578.63;;;14.91;35.23
8049;BME280;20935;42.660;23.342;2023-02-17T11:52:40;95580.41;;;14.67;35.16
8049;BME280;20935;42.660;23.342;2023-02-17T11:55:47;95570.00;;;14.66;35.69
8049;BME280;20935;42.660;23.342;2023-02-17T11:58:48;95575.91;;;14.94;35.74
8049;BME280;20935;42.660;23.342;2023-02-17T12:01:51;95572.53;;;14.83;35.91
8049;BME280;20935;42.660;23.342;2023-02-17T12:05:01;95570.28;;;15.16;35.61
8049;BME280;20935;42.660;23.342;2023-02-17T12:08:10;95559.47;;;14.78;35.89
8049;BME280;20935;42.660;23.342;2023-02-17T12:11:07;95553.34;;;15.15;35.43
8049;BME280;20935;42.660;23.342;2023-02-17T12:13:59;95548.56;;;14.92;35.50
8049;BME280;20935;42.660;23.342;2023-02-17T12:16:53;95551.66;;;15.28;35.18
8049;BME280;20935;42.660;23.342;2023-02-17T12:19:49;95549.59;;;15.39;35.71
8049;BME280;20935;42.660;23.342;2023-02-17T12:22:41;95544.13;;;15.09;35.71
8049;BME280;20935;42.660;23.342;2023-02-17T12:25:32;95534.34;;;15.22;35.58
8049;BME280;20935;42.660;23.342;2023-02-17T12:28:37;95540.31;;;15.07;35.80
8049;BME280;20935;42.660;23.342;2023-02-17T12:31:40;95530.50;;;15.23;35.09
8049;BME280;20935;42.660;23.342;2023-02-17T12:34:29;95524.34;;;15.23;35.32
8049;BME280;20935;42.660;23.342;2023-02-17T12:37:20;95516.97;;;15.27;35.16
8049;BME280;20935;42.660;23.342;2023-02-17T12:40:16;95516.44;;;15.39;34.89
8049;BME280;20935;42.660;23.342;2023-02-17T12:43:07;95507.00;;;15.54;35.51
8049;BME280;20935;42.660;23.342;2023-02-17T12:45:59;95510.69;;;15.33;35.18
8049;BME280;20935;42.660;23.342;2023-02-17T12:48:52;95505.84;;;15.21;35.54
8049;BME280;20935;42.660;23.342;2023-02-17T12:51:41;95508.69;;;15.41;35.30
8049;BME280;20935;42.660;23.342;2023-02-17T12:54:33;95515.47;;;15.22;35.27
8049;BME280;20935;42.660;23.342;2023-02-17T12:57:22;95502.22;;;15.35;35.23
8049;BME280;20935;42.660;23.342;2023-02-17T13:00:14;95493.56;;;15.17;35.09
8049;BME280;20935;42.660;23.342;2023-02-17T13:03:03;95501.81;;;15.36;35.01
8049;BME280;20935;42.660;23.342;2023-02-17T13:05:54;95494.34;;;15.47;35.00
8049;BME280;20935;42.660;23.342;2023-02-17T13:08:47;95496.97;;;15.55;34.98
8049;BME280;20935;42.660;23.342;2023-02-17T13:11:35;95493.34;;;15.34;35.12
8049;BME280;20935;42.660;23.342;2023-02-17T13:14:26;95515.03;;;15.27;35.18
8049;BME280;20935;42.660;23.342;2023-02-17T13:17:27;95497.63;;;14.98;35.33
8049;BME280;20935;42.660;23.342;2023-02-17T13:20:37;95497.09;;;15.10;35.36
8049;BME280;20935;42.660;23.342;2023-02-17T13:23:39;95492.75;;;15.20;34.60
8049;BME280;20935;42.660;23.342;2023-02-17T13:26:28;95496.47;;;15.29;34.83
8049;BME280;20935;42.660;23.342;2023-02-17T13:29:32;95483.38;;;15.31;35.07
8049;BME280;20935;42.660;23.342;2023-02-17T13:32:26;95503.84;;;15.25;34.72
8049;BME280;20935;42.660;23.342;2023-02-17T13:35:30;95485.50;;;15.13;34.71
8049;BME280;20935;42.660;23.342;2023-02-17T13:38:25;95482.44;;;15.11;34.49
8049;BME280;20935;42.660;23.342;2023-02-17T13:41:12;95487.38;;;15.20;33.74
8049;BME280;20935;42.660;23.342;2023-02-17T13:43:58;95476.97;;;15.18;33.92
8049;BME280;20935;42.660;23.342;2023-02-17T13:46:46;95491.31;;;15.12;33.08
8049;BME280;20935;42.660;23.342;2023-02-17T13:49:32;95512.25;;;15.00;33.04
8049;BME280;20935;42.660;23.342;2023-02-17T13:52:21;95484.31;;;14.84;32.97
8049;BME280;20935;42.660;23.342;2023-02-17T13:55:18;95480.75;;;14.90;33.20
8049;BME280;20935;42.660;23.342;2023-02-17T13:58:08;95483.06;;;14.92;32.89
8049;BME280;20935;42.660;23.342;2023-02-17T14:00:55;95477.94;;;15.01;32.97
8049;BME280;20935;42.660;23.342;2023-02-17T14:03:46;95474.44;;;15.04;33.09
8049;BME280;20935;42.660;23.342;2023-02-17T14:06:35;95480.25;;;15.02;32.41
8049;BME280;20935;42.660;23.342;2023-02-17T14:09:26;95490.75;;;14.93;31.95
8049;BME280;20935;42.660;23.342;2023-02-17T14:12:19;95476.25;;;14.80;32.38
8049;BME280;20935;42.660;23.342;2023-02-17T14:15:14;95473.59;;;14.77;32.18
8049;BME280;20935;42.660;23.342;2023-02-17T14:17:59;95477.75;;;14.85;32.16
8049;BME280;20935;42.660;23.342;2023-02-17T14:21:02;95475.75;;;14.89;32.71
8049;BME280;20935;42.660;23.342;2023-02-17T14:23:50;95481.63;;;14.84;33.28
8049;BME280;20935;42.660;23.342;2023-02-17T14:26:38;95487.34;;;14.86;34.13
8049;BME280;20935;42.660;23.342;2023-02-17T14:29:24;95489.97;;;14.59;34.38
8049;BME280;20935;42.660;23.342;2023-02-17T14:32:29;95487.09;;;14.36;35.14
8049;BME280;20935;42.660;23.342;2023-02-17T14:35:20;95489.03;;;14.35;35.44
8049;BME280;20935;42.660;23.342;2023-02-17T14:38:15;95490.63;;;14.22;35.68
8049;BME280;20935;42.660;23.342;2023-02-17T14:41:04;95496.09;;;14.15;35.96
8049;BME280;20935;42.660;23.342;2023-02-17T14:43:49;95488.50;;;14.03;36.70
8049;BME280;20935;42.660;23.342;2023-02-17T14:46:35;95505.50;;;13.93;37.02
8049;BME280;20935;42.660;23.342;2023-02-17T14:49:21;95491.56;;;14.01;36.83
8049;BME280;20935;42.660;23.342;2023-02-17T14:52:16;95484.69;;;13.97;37.23
8049;BME280;20935;42.660;23.342;2023-02-17T14:55:12;95493.59;;;13.87;37.48
8049;BME280;20935;42.660;23.342;2023-02-17T14:57:59;95482.50;;;13.81;37.78
8049;BME280;20935;42.660;23.342;2023-02-17T15:00:45;95492.09;;;13.82;37.74